Albuquerque, NM

8:19 AM MDT on September 19, 2014 (GMT -0600)
Albuquerque Double Eagle | Change Station
CLOSE
Current Station
Airport
Location: Albuquerque Double Eagle,
Elevation: 5837 ft
Nearby Weather Stations

Elev 5837 ft 35.15 °N, 106.79 °W | Updated 1 hour ago

Mostly Cloudy
Mostly Cloudy
57 °F
Feels Like 57 °F
N
0
Wind Variable Wind from North

Today
High -- | Low -- °F
--% Chance of Precip.
Yesterday
High -- | Low -- °F
Precip. -- in
6:52 AM 7:07 PM
Waning Crescent, 19% visible
Pressure 30.11 in
Visibility 10.0 miles
Clouds Overcast 11000 ft
Dew Point 55 °F
Humidity 94%
Rainfall 0.00 in
Snow Depth 2 in , 0 in , 13 in
UV 0 out of 12
Pollen 5.30 out of 12
Air Quality Not available.
Flu Activity Not available.
METAR KAEG 191248Z 00000KT 10SM OVC110 14/13 A3011

More Conditions Fewer Conditions

Pressure 30.11 in
Visibility 10.0 miles
Clouds Overcast 11000 ft
Dew Point 55 °F
Humidity 94%
Rainfall 0.00 in
Snow Depth 2 in , 0 in , 13 in
UV 0 out of 12
Pollen 5.30 out of 12
Air Quality Not available.
Flu Activity Not available.
METAR KAEG 191248Z 00000KT 10SM OVC110 14/13 A3011

More Conditions Fewer Conditions

10-Day Weather Forecast

Almanac

Astronomy

Sep. 19, 2014 Rise Set
Actual Time 6:52 AM MDT 7:07 PM MDT
Civil Twilight 6:27 AM MDT 7:32 PM MDT
Nautical Twilight 5:57 AM MDT 8:02 PM MDT
Astronomical Twilight 5:27 AM MDT 8:32 PM MDT
Moon 2:47 AM MDT 4:31 PM MDT
Length of Visible Light 13h 05m
Length of Day
12h 15m
Tomorrow will be 2m 10s shorter.
Waning Crescent, 19% of the Moon is Illuminated
Today
Waning Crescent
Sep 24
New
Oct 1
First Quarter
Oct 8
Full
Oct 15
Last Quarter

Today's Extremes

State Highs State Lows

Community

WunderPhotos

Upload Photos

1,754,614 photos uploaded!

WunderBlogs® & News

Nearby

Snow Depth

Station Depth Elevation
Red River Pass #2 0 in 9850 ft
North Costilla 2 in 10600 ft
Sierra Blanca 0 in 10280 ft
Silver Creek Divide 13 in 9000 ft
Signal Peak 0 in 8360 ft

Earthquake Activity

City Distance Mag. Time & Date
No recent earthquake activity has been reported nearby.
Minimum magnitude displayed is 2.5.

Coastal Water Temperatures

Place Temperature
No Stations Reporting

Nearby Weather Stations